Time;durP1;ratioP1;P1;durP2;ratioP2;P2;SDS_P1;SDS_P2;PMS_P1;PMS_P2;Temp;Humidity;BMP_temperature;BMP_pressure;BME280_temperature;BME280_humidity;BME280_pressure;Samples;Min_cycle;Max_cycle;Signal;HPM_P1;HPM_P2
2022/12/24 00:01:55;;;;;;;20.08;13.13;;;;;;;;;;6304382;22;20194;-91
2022/12/24 00:04:22;;;;;;;17.63;11.48;;;;;;;;;;6277174;22;20199;-90
2022/12/24 00:06:49;;;;;;;19.75;12.18;;;;;;;;;;6263151;23;20201;-90
2022/12/24 00:09:17;;;;;;;21.77;11.90;;;;;;;;;;6266014;23;20178;-90
2022/12/24 00:11:44;;;;;;;17.58;11.30;;;;;;;;;;6269051;23;20179;-91
2022/12/24 00:14:15;;;;;;;20.70;11.90;;;;;;;;;;6272508;22;20174;-88
2022/12/24 00:16:48;;;;;;;15.88;9.95;;;;;;;;;;6274251;22;20226;-90
2022/12/24 00:19:19;;;;;;;18.25;11.15;;;;;;;;;;6274333;22;20155;-90
2022/12/24 00:21:47;;;;;;;18.73;11.05;;;;;;;;;;6273954;22;20210;-89
2022/12/24 00:24:16;;;;;;;16.40;10.48;;;;;;;;;;6274438;22;20193;-89
2022/12/24 00:26:44;;;;;;;17.42;10.55;;;;;;;;;;6274045;22;20197;-92
2022/12/24 00:29:14;;;;;;;17.27;10.52;;;;;;;;;;6272301;22;20177;-92
2022/12/24 00:31:42;;;;;;;17.20;11.45;;;;;;;;;;6268641;23;20167;-91
2022/12/24 00:34:09;;;;;;;19.27;10.65;;;;;;;;;;6264857;22;20217;-91
2022/12/24 00:36:42;;;;;;;18.17;9.88;;;;;;;;;;6273028;22;20162;-90
2022/12/24 00:39:11;;;;;;;16.23;9.10;;;;;;;;;;6274562;22;20155;-88
2022/12/24 00:41:38;;;;;;;15.98;10.55;;;;;;;;;;6272608;22;20159;-90
2022/12/24 00:44:09;;;;;;;16.33;9.88;;;;;;;;;;6272744;22;20179;-90
2022/12/24 00:46:37;;;;;;;14.95;10.00;;;;;;;;;;6270713;23;20197;-89
2022/12/24 00:49:09;;;;;;;16.67;10.55;;;;;;;;;;6272508;22;20202;-91
2022/12/24 00:51:41;;;;;;;13.95;10.27;;;;;;;;;;6274187;22;20185;-90
2022/12/24 00:54:28;;;;;;;15.80;9.98;;;;;;;;;;6273531;22;20203;-90
2022/12/24 00:57:01;;;;;;;18.65;10.73;;;;;;;;;;6273758;23;20162;-91
2022/12/24 00:59:36;;;;;;;20.10;11.18;;;;;;;;;;6272072;23;20174;-90
2022/12/24 01:02:17;;;;;;;15.70;10.13;;;;;;;;;;6266687;23;20170;-90
2022/12/24 01:07:33;;;;;;;15.30;10.48;;;;;;;;;;6248840;23;20171;-90
2022/12/24 01:12:43;;;;;;;16.45;10.68;;;;;;;;;;6259639;22;20201;-90
2022/12/24 01:15:14;;;;;;;15.98;10.68;;;;;;;;;;6260332;23;20205;-90
2022/12/24 01:17:48;;;;;;;17.55;10.77;;;;;;;;;;6262480;23;20182;-91
2022/12/24 01:20:23;;;;;;;20.08;10.80;;;;;;;;;;6263533;23;20197;-91
2022/12/24 01:22:51;;;;;;;16.58;10.95;;;;;;;;;;6259182;22;20225;-90
2022/12/24 01:25:19;;;;;;;17.65;11.90;;;;;;;;;;6275817;22;20189;-88
2022/12/24 01:27:48;;;;;;;17.88;10.70;;;;;;;;;;6275958;22;20197;-88
2022/12/24 01:30:16;;;;;;;22.00;11.35;;;;;;;;;;6269973;22;20171;-90
2022/12/24 01:32:43;;;;;;;17.17;10.60;;;5.30;1.00;;;;;;6261522;22;20258;-89
2022/12/24 01:35:11;;;;;;;20.95;11.75;;;;;;;;;;6268043;23;20173;-90
2022/12/24 01:37:38;;;;;;;17.45;10.65;;;;;;;;;;6274664;22;20162;-90
2022/12/24 01:45:45;;;;;;;13.52;10.75;;;5.70;1.00;;;;;;6251226;23;20229;-90
2022/12/24 01:48:21;;;;;;;16.90;10.60;;;5.70;1.00;;;;;;6250952;23;20245;-90
2022/12/24 01:50:50;;;;;;;18.67;9.98;;;5.70;1.00;;;;;;6250436;23;20181;-90
2022/12/24 01:53:17;;;;;;;16.80;12.00;;;5.70;1.00;;;;;;6249605;22;20210;-89
2022/12/24 01:55:46;;;;;;;18.08;11.75;;;5.80;1.00;;;;;;6249831;23;20240;-90
2022/12/24 01:58:16;;;;;;;16.70;12.25;;;5.70;1.00;;;;;;6250207;23;20171;-89
2022/12/24 02:00:43;;;;;;;21.10;12.23;;;5.70;1.00;;;;;;6254484;23;20230;-90
2022/12/24 02:03:10;;;;;;;19.23;12.00;;;5.70;1.00;;;;;;6249932;22;20260;-90
2022/12/24 02:05:45;;;;;;;18.45;10.75;;;5.70;1.00;;;;;;6249438;23;20292;-90
2022/12/24 02:08:13;;;;;;;17.42;10.73;;;6.40;1.00;;;;;;6250916;23;20237;-89
2022/12/24 02:10:40;;;;;;;19.85;12.05;;;5.70;1.00;;;;;;6250585;23;20249;-90
2022/12/24 02:13:09;;;;;;;18.13;11.43;;;5.80;1.00;;;;;;6252942;22;20195;-89
2022/12/24 02:15:47;;;;;;;18.50;11.23;;;5.70;1.00;;;;;;6252886;23;20532;-89
2022/12/24 02:18:24;;;;;;;17.45;10.60;;;5.40;1.00;;;;;;6259550;23;20155;-89
2022/12/24 02:21:37;;;;;;;14.23;10.13;;;5.40;1.00;;;;;;6256238;23;20220;-90
2022/12/24 02:24:32;;;;;;;17.85;12.00;;;5.50;1.00;;;;;;6249609;22;20226;-89
2022/12/24 02:27:30;;;;;;;15.95;11.00;;;5.90;1.00;;;;;;6250080;23;20197;-89
2022/12/24 02:30:15;;;;;;;15.05;10.38;;;5.70;1.00;;;;;;6241386;23;20218;-88
2022/12/24 02:33:17;;;;;;;18.63;11.27;;;5.80;1.00;;;;;;6254576;22;20199;-89
2022/12/24 02:35:50;;;;;;;17.88;11.02;;;5.70;1.00;;;;;;6270508;23;20158;-89
2022/12/24 02:38:23;;;;;;;17.95;11.50;;;5.80;1.00;;;;;;6250260;23;20190;-89
2022/12/24 02:40:55;;;;;;;15.45;10.88;;;5.70;1.00;;;;;;6249886;23;20679;-90
2022/12/24 02:43:27;;;;;;;21.98;11.95;;;5.80;1.00;;;;;;6251852;22;20217;-90
2022/12/24 02:45:58;;;;;;;17.30;11.98;;;5.80;1.00;;;;;;6250984;23;20261;-90
2022/12/24 02:48:27;;;;;;;20.45;11.70;;;6.30;1.00;;;;;;6249840;23;20222;-90
2022/12/24 02:50:57;;;;;;;17.95;10.82;;;6.70;1.00;;;;;;6250278;23;20210;-90
2022/12/24 02:53:23;;;;;;;22.17;11.95;;;6.10;1.00;;;;;;6248873;22;20237;-90
2022/12/24 02:56:04;;;;;;;16.30;10.88;;;6.00;1.00;;;;;;6249037;23;20213;-90
2022/12/24 02:58:43;;;;;;;26.45;13.50;;;5.70;1.00;;;;;;6248693;23;20165;-90
2022/12/24 03:01:24;;;;;;;17.58;12.07;;;5.80;1.00;;;;;;6249222;23;20476;-90
2022/12/24 03:04:03;;;;;;;18.95;11.52;;;5.70;1.00;;;;;;6248644;22;20579;-89
2022/12/24 03:06:39;;;;;;;19.45;12.65;;;5.80;1.00;;;;;;6249641;23;20185;-90
2022/12/24 03:09:13;;;;;;;16.63;12.00;;;6.00;1.00;;;;;;6248778;23;20534;-90
2022/12/24 03:11:48;;;;;;;22.15;12.85;;;5.80;1.00;;;;;;6249959;23;20650;-89
2022/12/24 03:14:16;;;;;;;21.73;12.55;;;5.80;1.00;;;;;;6249800;22;20556;-89
2022/12/24 03:16:45;;;;;;;20.55;12.27;;;5.80;1.00;;;;;;6259016;23;20201;-89
2022/12/24 03:19:13;;;;;;;22.65;12.43;;;5.80;1.00;;;;;;6256282;23;20179;-89
2022/12/24 03:21:41;;;;;;;18.48;12.38;;;5.60;1.00;;;;;;6251299;23;20258;-90
2022/12/24 03:24:09;;;;;;;16.50;11.77;;;5.60;1.00;;;;;;6249638;22;20194;-90
2022/12/24 03:26:38;;;;;;;18.50;12.23;;;5.80;1.00;;;;;;6247729;23;20237;-89
2022/12/24 03:29:08;;;;;;;17.17;12.20;;;6.10;1.00;;;;;;6249432;23;20254;-90
2022/12/24 03:31:45;;;;;;;21.00;11.90;;;5.70;1.00;;;;;;6248924;23;20209;-90
2022/12/24 03:34:13;;;;;;;24.13;14.50;;;6.00;1.00;;;;;;6249201;22;20269;-90
2022/12/24 03:36:40;;;;;;;20.63;13.77;;;5.80;1.00;;;;;;6250933;23;20182;-90
2022/12/24 03:39:08;;;;;;;26.25;13.45;;;5.80;1.00;;;;;;6256350;23;20225;-90
2022/12/24 03:41:35;;;;;;;19.45;11.23;;;5.70;1.00;;;;;;6263571;23;20175;-90
2022/12/24 03:44:01;;;;;;;23.42;12.68;;;5.60;1.00;;;;;;6265875;22;20227;-90
2022/12/24 03:46:28;;;;;;;23.20;13.60;;;6.00;1.00;;;;;;6256619;23;20277;-90
2022/12/24 03:48:58;;;;;;;17.50;12.30;;;5.90;1.00;;;;;;6250382;23;20190;-89
2022/12/24 03:51:25;;;;;;;17.15;11.48;;;6.00;1.00;;;;;;6261218;23;20190;-88
2022/12/24 03:53:53;;;;;;;22.50;12.57;;;5.80;1.00;;;;;;6273856;22;20213;-88
2022/12/24 03:56:20;;;;;;;19.73;12.60;;;5.60;1.00;;;;;;6274500;22;20177;-87
2022/12/24 03:58:47;;;;;;;17.55;12.57;;;6.00;1.00;;;;;;6274548;22;20193;-88
2022/12/24 04:01:14;;;;;;;19.17;12.20;;;5.70;1.00;;;;;;6273911;22;20181;-87
2022/12/24 04:03:41;;;;;;;23.83;14.05;;;5.40;1.00;;;;;;6274403;22;20186;-88
2022/12/24 04:06:12;;;;;;;19.30;13.27;;;5.70;1.00;;;;;;6272730;23;20202;-90
2022/12/24 04:08:39;;;;;;;21.67;11.80;;;6.00;1.00;;;;;;6257980;23;20167;-90
2022/12/24 04:11:08;;;;;;;21.13;13.27;;;5.70;1.00;;;;;;6248556;23;20671;-90
2022/12/24 04:13:35;;;;;;;19.42;13.02;;;5.90;1.00;;;;;;6247544;22;20226;-90
2022/12/24 04:16:04;;;;;;;21.20;12.70;;;5.70;1.00;;;;;;6249456;23;20175;-90
2022/12/24 04:18:31;;;;;;;19.40;12.38;;;5.70;1.00;;;;;;6263493;23;20178;-91
2022/12/24 04:20:58;;;;;;;20.80;11.98;;;5.70;1.00;;;;;;6254998;23;20238;-90
2022/12/24 04:23:27;;;;;;;19.60;12.27;;;5.60;1.00;;;;;;6260761;22;20222;-90
2022/12/24 04:25:53;;;;;;;17.38;12.15;;;5.80;1.00;;;;;;6249253;23;20202;-90
2022/12/24 04:28:20;;;;;;;25.67;13.35;;;5.70;1.00;;;;;;6249154;23;20257;-90
2022/12/24 04:30:47;;;;;;;17.35;12.40;;;6.00;1.00;;;;;;6259150;23;20222;-88
2022/12/24 04:33:14;;;;;;;19.02;11.75;;;5.70;1.00;;;;;;6253094;22;20543;-88
2022/12/24 04:35:41;;;;;;;20.65;12.32;;;5.70;1.00;;;;;;6252721;23;20254;-89
2022/12/24 04:38:09;;;;;;;16.30;11.10;;;5.70;1.00;;;;;;6253872;23;20198;-89
2022/12/24 04:40:37;;;;;;;15.45;12.20;;;5.70;1.00;;;;;;6250772;23;20213;-89
2022/12/24 04:43:04;;;;;;;20.50;11.98;;;5.40;1.00;;;;;;6251968;22;20248;-90
2022/12/24 04:45:31;;;;;;;17.17;11.38;;;5.60;1.00;;;;;;6251142;23;20225;-91
2022/12/24 04:47:58;;;;;;;18.75;12.23;;;;;;;;;;6250515;23;20249;-90
2022/12/24 04:50:25;;;;;;;17.63;13.20;;;5.60;1.00;;;;;;6250393;23;20200;-90
2022/12/24 04:52:52;;;;;;;16.35;11.52;;;5.90;1.00;;;;;;6254633;22;20198;-90
2022/12/24 04:55:19;;;;;;;22.70;12.38;;;5.40;1.00;;;;;;6265409;23;20158;-91
2022/12/24 04:57:47;;;;;;;18.02;11.55;;;5.40;1.00;;;;;;6274692;22;20159;-88
2022/12/24 05:00:15;;;;;;;16.88;11.90;;;5.70;1.00;;;;;;6276163;22;20163;-88
2022/12/24 05:02:41;;;;;;;17.95;11.25;;;5.80;1.00;;;;;;6276275;22;20171;-88
2022/12/24 05:05:09;;;;;;;19.73;11.98;;;5.80;1.00;;;;;;6276079;22;20189;-88
2022/12/24 05:07:36;;;;;;;18.40;11.35;;;5.50;1.00;;;;;;6276339;22;20178;-88
2022/12/24 05:10:03;;;;;;;15.80;10.75;;;5.40;1.00;;;;;;6276151;22;20151;-90
2022/12/24 05:12:32;;;;;;;19.17;11.10;;;5.70;1.00;;;;;;6276086;22;20150;-90
2022/12/24 05:15:16;;;;;;;17.52;11.73;;;5.70;1.00;;;;;;6276041;22;20159;-90
2022/12/24 05:17:43;;;;;;;17.48;11.15;;;;;;;;;;6275246;22;20186;-91
2022/12/24 05:20:13;;;;;;;18.95;12.00;;;;;;;;;;6274349;22;20154;-90
2022/12/24 05:28:22;;;;;;;19.58;12.00;;;5.70;1.00;;;;;;6275746;22;20193;-91
2022/12/24 05:30:54;;;;;;;20.55;12.68;;;;;;;;;;6275161;22;20154;-91
2022/12/24 05:33:22;;;;;;;22.45;12.10;;;;;;;;;;6275204;22;20186;-91
2022/12/24 05:35:50;;;;;;;19.33;11.20;;;;;;;;;;6275560;22;20162;-92
2022/12/24 05:38:20;;;;;;;18.67;12.60;;;;;;;;;;6275101;22;20155;-91
2022/12/24 05:40:47;;;;;;;22.10;12.25;;;;;;;;;;6275332;22;20147;-91
2022/12/24 05:43:17;;;;;;;21.38;12.38;;;;;;;;;;6271238;22;20225;-92
2022/12/24 05:45:46;;;;;;;19.92;13.07;;;;;;;;;;6275421;22;20242;-92
2022/12/24 05:48:15;;;;;;;17.58;12.32;;;;;;;;;;6275345;22;20162;-91
2022/12/24 05:50:42;;;;;;;16.30;11.27;;;;;;;;;;6275674;22;20151;-89
2022/12/24 05:53:09;;;;;;;22.92;13.63;;;;;;;;;;6270754;22;20239;-85
2022/12/24 05:55:36;;;;;;;21.83;12.45;;;5.50;1.00;;;;;;6267157;23;20476;-86
2022/12/24 05:58:03;;;;;;;24.98;12.20;;;6.10;1.00;;;;;;6267261;22;20178;-84
2022/12/24 06:00:29;;;;;;;20.60;12.15;;;4.50;1.00;;;;;;6267559;22;20174;-84
2022/12/24 06:02:56;;;;;;;19.23;13.07;;;5.50;1.00;;;;;;6261384;22;20199;-85
2022/12/24 06:05:24;;;;;;;19.23;12.25;;;5.50;1.00;;;;;;6237224;23;20608;-85
2022/12/24 06:07:51;;;;;;;20.90;12.32;;;5.50;1.00;;;;;;6238211;23;20179;-85
2022/12/24 06:10:18;;;;;;;19.88;13.60;;;5.50;1.00;;;;;;6237106;23;20213;-85
2022/12/24 06:12:45;;;;;;;18.13;12.65;;;5.10;1.00;;;;;;6236819;23;20180;-84
2022/12/24 06:15:12;;;;;;;17.30;12.10;;;5.40;1.00;;;;;;6238384;23;20203;-82
2022/12/24 06:17:39;;;;;;;19.23;13.10;;;5.50;1.00;;;;;;6241093;22;20175;-84
2022/12/24 06:20:07;;;;;;;20.52;14.00;;;5.50;1.00;;;;;;6236983;23;20186;-85
2022/12/24 06:22:35;;;;;;;18.42;12.55;;;5.50;1.00;;;;;;6235844;23;20199;-84
2022/12/24 06:25:03;;;;;;;21.42;12.52;;;5.30;1.00;;;;;;6236390;23;20271;-84
2022/12/24 06:27:29;;;;;;;20.13;12.90;;;5.30;1.00;;;;;;6236445;23;20250;-84
2022/12/24 06:29:56;;;;;;;23.02;13.43;;;5.10;1.00;;;;;;6236780;23;20163;-84
2022/12/24 06:32:23;;;;;;;22.75;13.40;;;5.40;1.00;;;;;;6240243;23;20240;-84
2022/12/24 06:34:50;;;;;;;22.05;12.35;;;5.30;1.00;;;;;;6239453;23;20219;-84
2022/12/24 06:37:18;;;;;;;17.92;11.55;;;5.40;1.00;;;;;;6238861;23;20515;-84
2022/12/24 06:39:47;;;;;;;20.08;13.07;;;5.50;1.00;;;;;;6239538;23;20189;-83
2022/12/24 06:42:13;;;;;;;22.45;13.35;;;5.20;1.00;;;;;;6237957;23;20226;-84
2022/12/24 06:44:40;;;;;;;23.23;14.43;;;5.40;1.00;;;;;;6235838;23;20668;-84
2022/12/24 06:47:07;;;;;;;21.83;12.30;;;5.70;1.00;;;;;;6234614;23;20230;-85
2022/12/24 06:49:34;;;;;;;19.50;13.73;;;5.50;1.00;;;;;;6235035;23;20496;-84
2022/12/24 06:52:01;;;;;;;24.35;13.32;;;5.20;1.00;;;;;;6234683;23;20179;-84
2022/12/24 06:54:28;;;;;;;20.27;13.02;;;5.80;1.00;;;;;;6234469;23;20249;-84
2022/12/24 06:56:56;;;;;;;24.45;12.60;;;5.70;1.00;;;;;;6235190;23;20206;-83
2022/12/24 06:59:23;;;;;;;23.77;12.52;;;5.50;1.00;;;;;;6235671;23;20203;-84
2022/12/24 07:01:50;;;;;;;22.13;13.45;;;5.90;1.00;;;;;;6243498;22;20187;-83
2022/12/24 07:04:17;;;;;;;24.98;13.45;;;5.20;1.00;;;;;;6243818;22;20209;-84
2022/12/24 07:06:43;;;;;;;19.63;13.07;;;5.50;1.00;;;;;;6242490;22;20211;-85
2022/12/24 07:09:12;;;;;;;19.98;13.70;;;5.50;1.00;;;;;;6242599;22;20166;-85
2022/12/24 07:11:39;;;;;;;25.08;12.82;;;5.50;1.00;;;;;;6242841;22;20194;-86
2022/12/24 07:14:07;;;;;;;23.75;13.85;;;5.50;1.00;;;;;;6236167;23;20203;-84
2022/12/24 07:16:34;;;;;;;24.42;14.35;;;5.50;1.00;;;;;;6235692;23;20253;-84
2022/12/24 07:19:01;;;;;;;20.70;13.20;;;5.50;1.00;;;;;;6234701;23;20206;-84
2022/12/24 07:21:28;;;;;;;20.60;13.90;;;5.40;1.00;;;;;;6234298;23;20179;-84
2022/12/24 07:23:54;;;;;;;24.77;13.32;;;5.40;1.00;;;;;;6234216;23;20234;-84
2022/12/24 07:26:21;;;;;;;17.77;12.05;;;5.50;1.00;;;;;;6233346;23;20215;-85
2022/12/24 07:28:48;;;;;;;19.00;11.98;;;5.50;1.00;;;;;;6233901;23;20230;-85
2022/12/24 07:31:17;;;;;;;21.63;12.65;;;;;;;;;;6240742;22;20177;-83
2022/12/24 07:33:43;;;;;;;21.55;12.82;;;5.80;1.00;;;;;;6243714;22;20214;-84
2022/12/24 07:36:16;;;;;;;19.73;12.55;;;5.60;1.00;;;;;;6243256;22;20205;-82
2022/12/24 07:38:43;;;;;;;23.52;13.07;;;5.50;1.00;;;;;;6242903;22;20607;-82
2022/12/24 07:41:10;;;;;;;17.30;11.88;;;5.40;1.00;;;;;;6243743;22;20186;-80
2022/12/24 07:43:37;;;;;;;24.52;12.85;;;5.80;1.00;;;;;;6243644;22;20183;-83
2022/12/24 07:46:04;;;;;;;22.80;13.13;;;5.50;1.00;;;;;;6242799;22;20195;-84
2022/12/24 07:48:33;;;;;;;21.90;13.63;;;5.50;1.00;;;;;;6237362;23;20261;-85
2022/12/24 07:51:00;;;;;;;21.15;11.85;;;5.50;1.00;;;;;;6229182;23;20234;-83
2022/12/24 07:53:46;;;;;;;24.52;13.10;;;5.80;1.00;;;;;;6228034;23;20289;-83
2022/12/24 07:56:13;;;;;;;24.98;15.00;;;5.40;1.00;;;;;;6227939;23;20170;-82
2022/12/24 07:58:40;;;;;;;22.27;13.50;;;5.50;1.00;;;;;;6227353;23;20179;-81
2022/12/24 08:01:08;;;;;;;23.40;14.23;;;5.50;1.00;;;;;;6226375;23;20181;-80
2022/12/24 08:03:36;;;;;;;18.65;11.98;;;5.50;1.00;;;;;;6227799;23;20195;-83
2022/12/24 08:06:03;;;;;;;21.65;12.77;;;5.50;1.00;;;;;;6226565;23;20202;-81
2022/12/24 08:08:30;;;;;;;20.65;12.60;;;5.70;1.00;;;;;;6239295;23;20199;-81
2022/12/24 08:11:02;;;;;;;23.90;13.98;;;5.20;1.00;;;;;;6239941;23;20178;-82
2022/12/24 08:13:29;;;;;;;21.33;12.73;;;5.50;1.00;;;;;;6240929;23;20283;-79
2022/12/24 08:15:55;;;;;;;18.48;11.70;;;5.80;1.00;;;;;;6232823;23;20234;-81
2022/12/24 08:18:24;;;;;;;28.08;12.20;;;5.70;1.00;;;;;;6234340;23;20175;-83
2022/12/24 08:20:52;;;;;;;21.58;12.93;;;5.60;1.00;;;;;;6231805;23;20217;-81
2022/12/24 08:23:19;;;;;;;23.17;14.75;;;5.40;1.00;;;;;;6231730;23;20202;-84
2022/12/24 08:25:47;;;;;;;21.85;13.68;;;6.10;1.00;;;;;;6234250;23;20179;-82
2022/12/24 08:28:16;;;;;;;20.90;12.63;;;5.50;1.00;;;;;;6232493;23;20238;-79
2022/12/24 08:30:43;;;;;;;22.50;13.70;;;5.80;1.00;;;;;;6230256;23;20217;-81
2022/12/24 08:33:10;;;;;;;21.30;13.93;;;5.50;1.00;;;;;;6228967;23;20228;-80
2022/12/24 08:35:37;;;;;;;21.92;13.10;;;5.20;1.00;;;;;;6228080;23;20179;-82
2022/12/24 08:38:06;;;;;;;22.10;13.13;;;5.80;1.00;;;;;;6228778;23;20222;-80
2022/12/24 08:40:33;;;;;;;27.02;15.93;;;5.80;1.00;;;;;;6227739;23;20231;-81
2022/12/24 08:43:02;;;;;;;22.15;13.50;;;5.90;1.00;;;;;;6227568;23;20223;-83
2022/12/24 08:45:29;;;;;;;26.55;15.27;;;5.60;1.00;;;;;;6231786;23;20187;-84
2022/12/24 08:47:56;;;;;;;22.58;13.77;;;5.80;1.00;;;;;;6231318;23;20227;-87
2022/12/24 08:50:23;;;;;;;21.70;12.38;;;;;;;;;;6229983;23;20186;-87
2022/12/24 08:52:50;;;;;;;24.20;14.80;;;5.20;1.00;;;;;;6229585;23;20186;-84
2022/12/24 08:55:18;;;;;;;23.85;15.63;;;5.50;1.00;;;;;;6235364;23;20659;-87
2022/12/24 09:00:38;;;;;;;25.48;15.77;;;;;;;;;;6222387;23;20638;-88
2022/12/24 09:03:15;;;;;;;22.10;12.98;;;5.50;1.00;;;;;;6225196;23;20195;-87
2022/12/24 09:13:03;;;;;;;27.65;14.65;;;5.60;1.00;;;;;;6058584;23;20685;-86
2022/12/24 09:40:24;;;;;;;22.40;13.50;;;5.80;1.00;;;;;;6258942;22;20631;-81
2022/12/24 09:42:53;;;;;;;28.27;14.63;;;5.80;1.00;;;;;;6257049;22;20162;-80
2022/12/24 09:45:26;;;;;;;24.50;13.63;;;5.80;1.00;;;;;;6255984;22;20189;-82
2022/12/24 09:47:57;;;;;;;24.50;12.95;;;5.80;1.00;;;;;;6257521;22;20186;-81
2022/12/24 09:50:36;;;;;;;21.08;13.10;;;5.70;1.00;;;;;;6244406;22;20199;-83
2022/12/24 09:53:11;;;;;;;24.63;13.88;;;5.80;1.00;;;;;;6233066;23;20164;-83
2022/12/24 09:55:44;;;;;;;24.65;14.98;;;5.80;1.00;;;;;;6245042;23;20170;-82
2022/12/24 09:58:19;;;;;;;26.15;14.07;;;5.80;1.00;;;;;;6244859;23;20188;-83
2022/12/24 10:00:45;;;;;;;27.33;14.25;;;5.70;1.00;;;;;;6244066;23;20202;-82
2022/12/24 10:03:15;;;;;;;21.20;14.02;;;5.90;1.00;;;;;;6228334;23;20206;-83
2022/12/24 10:05:51;;;;;;;26.42;15.38;;;5.90;1.00;;;;;;6233330;23;20227;-83
2022/12/24 10:08:26;;;;;;;25.02;15.95;;;5.90;1.00;;;;;;6239421;23;20166;-82
2022/12/24 10:10:58;;;;;;;23.73;14.02;;;5.90;1.00;;;;;;6238207;23;20218;-82
2022/12/24 10:13:35;;;;;;;30.05;14.82;;;5.90;1.00;;;;;;6232387;23;20163;-82
2022/12/24 10:16:08;;;;;;;26.33;15.35;;;6.00;1.00;;;;;;6233835;23;20170;-82
2022/12/24 10:18:44;;;;;;;28.55;16.38;;;5.90;1.00;;;;;;6227925;23;20243;-83
2022/12/24 10:21:15;;;;;;;24.75;14.02;;;6.00;1.00;;;;;;6227787;23;20278;-83
2022/12/24 10:23:47;;;;;;;28.65;14.65;;;6.00;1.00;;;;;;6228792;23;20164;-83
2022/12/24 10:26:22;;;;;;;23.17;14.77;;;6.00;1.00;;;;;;6225956;23;20174;-83
2022/12/24 10:28:54;;;;;;;28.13;16.33;;;6.10;1.00;;;;;;6225078;23;20206;-83
2022/12/24 10:31:25;;;;;;;25.65;16.40;;;6.30;1.00;;;;;;6223752;23;20195;-83
2022/12/24 10:33:57;;;;;;;24.80;14.90;;;6.40;1.00;;;;;;6224539;23;20163;-83
2022/12/24 10:36:28;;;;;;;28.27;14.30;;;6.50;1.00;;;;;;6225159;23;20250;-83
2022/12/24 10:38:55;;;;;;;25.73;14.48;;;6.60;1.00;;;;;;6226348;23;20164;-82
2022/12/24 10:41:25;;;;;;;21.02;12.65;;;6.70;1.00;;;;;;6225445;23;20286;-83
2022/12/24 10:43:52;;;;;;;24.23;14.32;;;6.70;1.00;;;;;;6224806;23;20211;-83
2022/12/24 10:46:22;;;;;;;21.65;13.98;;;6.60;1.00;;;;;;6225999;23;20226;-82
2022/12/24 10:48:54;;;;;;;19.38;12.02;;;6.70;1.00;;;;;;6226029;23;20202;-83
2022/12/24 10:51:30;;;;;;;17.08;12.50;;;6.80;1.00;;;;;;6225954;23;20250;-83
2022/12/24 10:54:03;;;;;;;19.63;12.43;;;6.80;1.00;;;;;;6225713;23;20170;-82
2022/12/24 10:56:31;;;;;;;15.80;10.60;;;6.90;1.00;;;;;;6225903;23;20223;-82
2022/12/24 10:58:58;;;;;;;19.25;11.80;;;7.00;1.00;;;;;;6227155;23;20210;-83
2022/12/24 11:01:43;;;;;;;16.10;10.63;;;7.10;1.00;;;;;;6228812;23;20731;-82
2022/12/24 11:04:16;;;;;;;15.02;10.18;;;7.20;1.00;;;;;;6228164;23;20223;-83
2022/12/24 11:06:53;;;;;;;18.02;9.30;;;7.20;1.00;;;;;;6240330;23;20246;-82
2022/12/24 11:09:22;;;;;;;14.00;10.77;;;7.60;1.00;;;;;;6238781;23;20187;-82
2022/12/24 11:11:50;;;;;;;12.77;9.48;;;7.30;1.00;;;;;;6238371;23;20179;-82
2022/12/24 11:14:20;;;;;;;13.98;10.07;;;7.30;1.00;;;;;;6239317;23;20209;-82
2022/12/24 11:16:52;;;;;;;12.68;8.68;;;7.00;1.00;;;;;;6230459;23;20187;-83
2022/12/24 11:19:25;;;;;;;11.30;8.27;;;7.10;1.00;;;;;;6228271;23;20632;-82
2022/12/24 11:21:59;;;;;;;11.45;8.60;;;7.30;1.00;;;;;;6227377;23;20174;-82
2022/12/24 11:24:28;;;;;;;12.95;8.75;;;7.30;1.00;;;;;;6225545;23;20163;-82
2022/12/24 11:27:37;;;;;;;14.95;7.63;;;7.10;1.00;;;;;;6225673;23;20206;-82
2022/12/24 11:30:22;;;;;;;10.82;8.15;;;7.30;1.00;;;;;;6217992;23;20226;-83
2022/12/24 11:32:50;;;;;;;12.00;7.57;;;7.30;1.00;;;;;;6226394;23;20164;-83
2022/12/24 11:35:20;;;;;;;10.88;8.50;;;7.30;1.00;;;;;;6234731;23;20243;-82
2022/12/24 11:37:47;;;;;;;13.15;8.52;;;7.40;1.00;;;;;;6233912;23;20191;-83
2022/12/24 11:40:21;;;;;;;12.13;8.38;;;7.40;1.00;;;;;;6228756;23;20226;-83
2022/12/24 11:42:52;;;;;;;11.02;8.57;;;7.50;1.00;;;;;;6224203;23;20179;-83
2022/12/24 11:45:22;;;;;;;12.68;8.27;;;7.50;1.00;;;;;;6229680;23;20222;-82
2022/12/24 11:47:49;;;;;;;10.40;7.65;;;7.50;1.00;;;;;;6225514;23;20160;-84
2022/12/24 11:50:26;;;;;;;16.42;9.07;;;7.50;1.00;;;;;;6225721;23;20195;-83
2022/12/24 11:53:02;;;;;;;13.55;8.57;;;7.40;1.00;;;;;;6224514;23;20163;-83
2022/12/24 11:55:39;;;;;;;10.50;7.40;;;7.40;1.00;;;;;;6225640;23;20166;-82
2022/12/24 11:58:18;;;;;;;9.95;7.20;;;7.40;1.00;;;;;;6225979;23;20218;-83
2022/12/24 12:00:46;;;;;;;9.60;7.70;;;7.30;1.00;;;;;;6225854;23;20199;-83
2022/12/24 12:03:29;;;;;;;12.40;7.78;;;7.40;1.00;;;;;;6226262;23;20179;-84
2022/12/24 12:05:58;;;;;;;11.25;7.97;;;7.80;1.00;;;;;;6224428;23;20195;-83
2022/12/24 12:08:28;;;;;;;10.55;7.05;;;7.40;1.00;;;;;;6225217;23;20258;-83
2022/12/24 12:10:58;;;;;;;10.65;7.22;;;7.50;1.00;;;;;;6226006;23;20265;-84
2022/12/24 12:13:32;;;;;;;11.20;7.88;;;7.60;1.00;;;;;;6226309;23;20233;-83
2022/12/24 12:16:13;;;;;;;11.13;7.43;;;7.60;1.00;;;;;;6224466;23;20545;-83
2022/12/24 12:18:45;;;;;;;8.43;7.10;;;7.60;1.00;;;;;;6223495;23;20186;-83
2022/12/24 12:21:17;;;;;;;10.15;7.45;;;7.70;1.00;;;;;;6222533;23;20195;-84
2022/12/24 12:23:47;;;;;;;11.00;7.97;;;7.70;1.00;;;;;;6222637;23;20219;-83
2022/12/24 12:26:20;;;;;;;10.52;7.80;;;7.70;1.00;;;;;;6222448;23;20174;-83
2022/12/24 12:28:51;;;;;;;9.20;6.47;;;7.70;1.00;;;;;;6221869;23;20184;-83
2022/12/24 12:31:23;;;;;;;7.85;7.15;;;7.80;1.00;;;;;;6222778;23;20505;-84
2022/12/24 12:33:55;;;;;;;8.60;6.40;;;7.80;1.00;;;;;;6223387;23;20448;-83
2022/12/24 12:36:28;;;;;;;8.23;7.40;;;7.90;1.00;;;;;;6224566;23;20409;-83
2022/12/24 12:38:55;;;;;;;8.60;6.60;;;7.90;1.00;;;;;;6223226;23;20190;-83
2022/12/24 12:41:39;;;;;;;12.20;8.00;;;7.90;1.00;;;;;;6223396;23;20497;-82
2022/12/24 12:44:34;;;;;;;8.30;6.80;;;8.00;1.00;;;;;;6224098;23;20418;-82
2022/12/24 12:47:22;;;;;;;9.60;7.13;;;7.90;1.00;;;;;;6208670;23;20410;-83
2022/12/24 12:49:54;;;;;;;9.93;6.73;;;7.90;1.00;;;;;;6219962;23;20529;-82
2022/12/24 12:52:34;;;;;;;11.50;8.00;;;7.90;1.00;;;;;;6225796;23;20386;-82
2022/12/24 12:55:16;;;;;;;11.40;8.07;;;8.00;1.00;;;;;;6226227;23;20419;-83
2022/12/24 12:57:46;;;;;;;10.83;7.90;;;8.00;1.00;;;;;;6226909;23;20453;-84
2022/12/24 13:00:18;;;;;;;11.88;7.18;;;8.10;1.00;;;;;;6227797;23;20458;-82
2022/12/24 13:03:10;;;;;;;9.73;7.68;;;8.10;1.00;;;;;;6228190;23;20163;-83
2022/12/24 13:06:04;;;;;;;16.15;7.50;;;8.20;1.00;;;;;;6226492;23;20175;-83
2022/12/24 13:08:59;;;;;;;16.08;7.70;;;8.20;1.00;;;;;;6228992;23;20220;-83
2022/12/24 13:11:50;;;;;;;12.00;7.93;;;8.30;1.00;;;;;;6226004;23;20207;-83
2022/12/24 13:14:29;;;;;;;11.87;7.57;;;8.10;1.00;;;;;;6226138;23;20257;-83
2022/12/24 13:17:25;;;;;;;20.77;7.43;;;8.10;1.00;;;;;;6237646;23;20371;-82
2022/12/24 13:20:11;;;;;;;14.70;7.10;;;8.10;1.00;;;;;;6236655;23;20426;-83
2022/12/24 13:22:38;;;;;;;13.60;7.13;;;8.10;1.00;;;;;;6229268;23;20402;-83
2022/12/24 13:25:06;;;;;;;15.17;7.30;;;8.10;1.00;;;;;;6230417;23;20445;-82
2022/12/24 13:27:34;;;;;;;16.75;7.85;;;8.10;1.00;;;;;;6228805;23;20850;-83
2022/12/24 13:30:04;;;;;;;14.30;6.70;;;8.10;1.00;;;;;;6228051;23;20199;-83
2022/12/24 13:32:45;;;;;;;7.50;6.50;;;8.20;1.00;;;;;;6226819;23;20501;-83
2022/12/24 13:35:34;;;;;;;14.03;8.00;;;8.20;1.00;;;;;;6231509;23;20366;-82
2022/12/24 13:38:33;;;;;;;11.38;7.88;;;8.20;1.00;;;;;;6224395;23;20413;-83
2022/12/24 13:41:38;;;;;;;13.83;8.10;;;8.20;1.00;;;;;;6223537;23;20285;-83
2022/12/24 13:44:16;;;;;;;12.55;7.35;;;8.20;1.00;;;;;;6228578;23;20409;-82
2022/12/24 13:46:51;;;;;;;13.38;7.60;;;8.20;1.00;;;;;;6226469;23;20164;-83
2022/12/24 13:49:25;;;;;;;21.83;7.97;;;8.50;1.00;;;;;;6228514;23;20199;-84
2022/12/24 13:52:04;;;;;;;16.92;7.93;;;8.30;1.00;;;;;;6225732;23;20402;-83
2022/12/24 13:54:31;;;;;;;15.30;6.80;;;8.00;1.00;;;;;;6226837;23;20190;-83
2022/12/24 13:56:59;;;;;;;19.83;8.52;;;8.30;1.00;;;;;;6225244;23;20179;-83
2022/12/24 13:59:36;;;;;;;12.05;7.10;;;8.00;1.00;;;;;;6227536;23;20195;-83
2022/12/24 14:02:04;;;;;;;12.17;6.40;;;8.30;1.00;;;;;;6227297;23;20218;-83
2022/12/24 14:04:36;;;;;;;17.73;6.95;;;8.30;1.00;;;;;;6226521;23;20407;-83
2022/12/24 14:07:04;;;;;;;23.90;8.00;;;8.10;1.00;;;;;;6225665;23;20159;-84
2022/12/24 14:09:32;;;;;;;13.82;7.05;;;8.40;1.00;;;;;;6225367;23;20182;-84
2022/12/24 14:12:33;;;;;;;29.20;6.90;;;8.20;1.00;;;;;;6225790;23;20250;-84
2022/12/24 14:15:35;;;;;;;20.98;7.55;;;8.10;1.00;;;;;;6225074;23;20445;-82
2022/12/24 14:18:02;;;;;;;19.95;6.53;;;8.10;1.00;;;;;;6208182;23;20198;-83